Nelspruit, South Africa

8:20 AM SAST on December 27, 2014 (GMT +0200)
IMPUMALA11 | Change Station
CLOSE
Current Station
Personal Weather Station
Location: Nelspruit, MPUMALANGA
Elevation: 2552 ft
Nearby Weather Stations

Elev 2552 ft 25.49 °S, 30.99 °E | Updated 9 seconds ago

Patches of Fog
Patches Fog
72.9 °F
Feels Like 73 °F
N
1.1
Wind Variable Wind from West
Gusts 4.3 mph

Today
High -- | Low -- °F
--% Chance of Precip.
Yesterday
High -- | Low -- °F
Precip. -- in
5:05 AM 6:48 PM
Waxing Crescent, 33% visible
Pressure 30.01 in
Visibility 3.1 miles
Clouds Scattered Clouds 500 ft
Mostly Cloudy 1000 ft
Heat Index 73 °F
Dew Point 66 °F
Humidity 80%
Rainfall 0.04 in
Snow Depth Not available.
UV 3 out of 12
Pollen Not available.
Air Quality Not available.
Flu Activity Not available.
METAR FAKN 270600Z 07004KT 5000 BCFG SCT005 BKN010 21/18 Q1016 BECMG 8000 BKN010

More Conditions Fewer Conditions

Pressure 30.01 in
Visibility 3.1 miles
Clouds Scattered Clouds 500 ft
Mostly Cloudy 1000 ft
Heat Index 73 °F
Dew Point 66 °F
Humidity 80%
Rainfall 0.04 in
Snow Depth Not available.
UV 3 out of 12
Pollen Not available.
Air Quality Not available.
Flu Activity Not available.
METAR FAKN 270600Z 07004KT 5000 BCFG SCT005 BKN010 21/18 Q1016 BECMG 8000 BKN010

More Conditions Fewer Conditions

10-Day Weather Forecast

Almanac

Astronomy

Dec. 27, 2014 Rise Set
Actual Time
Civil Twilight
Nautical Twilight
Astronomical Twilight
Moon
Length of Visible Light
Length of Day
Tomorrow will be .
, % of the Moon is Illuminated

Today's Extremes

Country Highs Country Lows

Community

WunderPhotos

Upload Photos

1,780,855 photos uploaded!

WunderBlogs® & News

Nearby

Air Quality

  Air Quality AQ Index Pollutant
Not available.

Snow Depth

Station Depth Elevation

Earthquake Activity

City Distance Mag. Time & Date
Minimum magnitude displayed is 2.5.

Coastal Water Temperatures

Place Temperature

Nearby Weather Stations